createdAt,value
2023-05-10T00:04:34.067Z,8.94
2023-05-10T00:09:44.250Z,8.94
2023-05-10T00:14:53.895Z,8.88
2023-05-10T00:20:06.114Z,8.84
2023-05-10T00:25:16.685Z,8.79
2023-05-10T00:30:26.851Z,8.74
2023-05-10T00:35:36.508Z,8.68
2023-05-10T00:40:46.290Z,8.60
2023-05-10T00:45:57.226Z,8.49
2023-05-10T00:51:07.659Z,8.42
2023-05-10T00:56:17.837Z,8.37
2023-05-10T01:01:27.799Z,8.33
2023-05-10T01:06:37.657Z,8.26
2023-05-10T01:11:47.449Z,8.12
2023-05-10T01:16:58.552Z,7.96
2023-05-10T01:22:25.094Z,7.83
2023-05-10T01:28:04.349Z,7.71
2023-05-10T01:33:20.630Z,7.62
2023-05-10T01:38:41.837Z,7.52
2023-05-10T01:44:00.106Z,7.51
2023-05-10T01:49:16.058Z,7.45
2023-05-10T01:54:27.690Z,7.39
2023-05-10T01:59:42.960Z,7.34
2023-05-10T02:04:55.787Z,7.31
2023-05-10T02:10:07.713Z,7.31
2023-05-10T02:15:24.594Z,7.31
2023-05-10T02:20:36.440Z,7.25
2023-05-10T02:25:47.344Z,7.20
2023-05-10T02:30:58.333Z,7.10
2023-05-10T02:36:11.911Z,7.02
2023-05-10T02:41:24.099Z,6.99
2023-05-10T02:46:34.110Z,6.97
2023-05-10T02:51:53.453Z,6.96
2023-05-10T02:57:08.398Z,6.98
2023-05-10T03:02:18.449Z,7.01
2023-05-10T03:07:28.496Z,7.09
2023-05-10T03:12:59.904Z,7.18
2023-05-10T03:18:15.835Z,7.27
2023-05-10T03:23:35.239Z,7.31
2023-05-10T03:28:46.329Z,7.37
2023-05-10T03:33:56.598Z,7.51
2023-05-10T03:39:06.235Z,7.65
2023-05-10T03:44:16.057Z,7.68
2023-05-10T03:49:25.945Z,7.71
2023-05-10T03:54:35.781Z,7.78
2023-05-10T03:59:46.180Z,7.95
2023-05-10T04:04:55.767Z,8.13
2023-05-10T04:10:05.852Z,8.30
2023-05-10T04:15:16.344Z,8.42
2023-05-10T04:20:26.412Z,8.53
2023-05-10T04:25:38.330Z,8.62
2023-05-10T04:30:48.396Z,8.73
2023-05-10T04:35:58.261Z,8.85
2023-05-10T04:41:15.131Z,8.97
2023-05-10T04:46:24.811Z,9.12
2023-05-10T04:51:34.593Z,9.25
2023-05-10T04:56:44.904Z,9.34
2023-05-10T05:01:54.820Z,9.44
2023-05-10T05:07:04.432Z,9.56
2023-05-10T05:12:15.430Z,9.73
2023-05-10T05:17:25.231Z,9.90
2023-05-10T05:22:35.145Z,10.10
2023-05-10T05:27:44.704Z,10.31
2023-05-10T05:32:54.468Z,10.49
2023-05-10T05:38:04.350Z,10.65
2023-05-10T05:43:14.807Z,10.82
2023-05-10T05:48:24.929Z,11.09
2023-05-10T05:53:35.990Z,11.36
2023-05-10T05:58:46.018Z,11.59
2023-05-10T06:03:56.069Z,11.93
2023-05-10T06:09:05.904Z,12.24
2023-05-10T06:14:16.571Z,12.38
2023-05-10T06:19:27.510Z,12.61
2023-05-10T06:24:37.324Z,12.87
2023-05-10T06:29:47.355Z,13.08
2023-05-10T06:34:57.382Z,13.30
2023-05-10T06:40:08.956Z,13.55
2023-05-10T06:45:19.907Z,13.80
2023-05-10T06:50:30.021Z,13.98
2023-05-10T06:55:40.306Z,14.24
2023-05-10T07:00:50.582Z,14.38
2023-05-10T07:06:11.342Z,14.62
2023-05-10T07:11:26.140Z,14.89
2023-05-10T07:16:35.955Z,15.07
2023-05-10T07:21:46.299Z,15.29
2023-05-10T07:26:56.156Z,15.57
2023-05-10T07:32:06.282Z,15.66
2023-05-10T07:37:16.530Z,15.83
2023-05-10T07:42:26.222Z,15.89
2023-05-10T07:47:36.622Z,16.08
2023-05-10T07:52:46.473Z,16.33
2023-05-10T07:57:56.365Z,16.45
2023-05-10T08:03:06.560Z,16.52
2023-05-10T08:08:16.611Z,16.65
2023-05-10T08:13:26.334Z,16.68
2023-05-10T08:18:35.958Z,16.75
2023-05-10T08:23:46.015Z,16.87
2023-05-10T08:28:55.915Z,16.94
2023-05-10T08:34:05.745Z,16.88
2023-05-10T08:39:26.688Z,16.97
2023-05-10T08:44:39.471Z,17.07
2023-05-10T08:49:52.448Z,17.18
2023-05-10T08:55:03.050Z,17.37
2023-05-10T09:00:15.983Z,17.56
2023-05-10T09:05:25.842Z,17.82
2023-05-10T09:10:36.037Z,18.01
2023-05-10T09:15:46.221Z,17.92
2023-05-10T09:20:56.847Z,18.04
2023-05-10T09:26:10.603Z,18.10
2023-05-10T09:31:20.306Z,18.33
2023-05-10T09:36:30.473Z,18.30
2023-05-10T09:41:40.217Z,18.35
2023-05-10T09:46:55.191Z,18.43
2023-05-10T09:52:09.936Z,18.53
2023-05-10T09:57:28.136Z,18.52
2023-05-10T10:02:38.216Z,18.48
2023-05-10T10:07:50.569Z,18.56
2023-05-10T10:13:00.682Z,18.59
2023-05-10T10:18:15.329Z,18.68
2023-05-10T10:23:25.253Z,18.66
2023-05-10T10:28:49.823Z,18.60
2023-05-10T10:34:09.172Z,18.74
2023-05-10T10:39:20.640Z,18.89
2023-05-10T10:44:39.652Z,18.88
2023-05-10T10:50:05.974Z,19.01
2023-05-10T10:55:20.201Z,19.19
2023-05-10T11:00:35.708Z,19.12
2023-05-10T11:05:50.008Z,19.19
2023-05-10T11:11:10.086Z,19.59
2023-05-10T11:16:28.195Z,19.68
2023-05-10T11:21:47.403Z,19.78
2023-05-10T11:26:57.719Z,19.70
2023-05-10T11:32:10.144Z,19.68
2023-05-10T11:37:20.847Z,19.81
2023-05-10T11:42:31.756Z,19.73
2023-05-10T11:47:43.787Z,19.75
2023-05-10T11:52:57.396Z,19.87
2023-05-10T11:58:07.946Z,20.06
2023-05-10T12:03:18.032Z,20.12
2023-05-10T12:08:29.770Z,20.05
2023-05-10T12:13:47.877Z,19.86
2023-05-10T12:18:59.137Z,19.77
2023-05-10T12:24:10.055Z,19.84
2023-05-10T12:29:21.512Z,19.78
2023-05-10T12:34:36.219Z,19.83
2023-05-10T12:39:49.611Z,19.88
2023-05-10T12:45:02.645Z,19.96
2023-05-10T12:50:13.822Z,20.02
2023-05-10T12:55:23.420Z,20.12
2023-05-10T13:00:32.904Z,20.15
2023-05-10T13:05:42.684Z,20.10
2023-05-10T13:10:52.604Z,19.88
2023-05-10T13:16:02.072Z,19.83
2023-05-10T13:21:12.557Z,19.85
2023-05-10T13:26:22.479Z,19.93
2023-05-10T13:31:32.476Z,19.98
2023-05-10T13:36:42.329Z,19.99
2023-05-10T13:41:53.799Z,20.06
2023-05-10T13:47:03.697Z,20.23
2023-05-10T13:52:13.298Z,20.15
2023-05-10T13:57:22.996Z,20.13
2023-05-10T14:02:32.680Z,20.13
2023-05-10T14:07:42.330Z,20.06
2023-05-10T14:12:52.085Z,20.08
2023-05-10T14:18:01.742Z,20.22
2023-05-10T14:23:12.098Z,20.28
2023-05-10T14:28:22.104Z,20.24
2023-05-10T14:33:31.800Z,20.27
2023-05-10T14:38:41.662Z,20.21
2023-05-10T14:43:51.155Z,20.22
2023-05-10T14:49:00.613Z,20.07
2023-05-10T14:54:10.305Z,20.09
2023-05-10T14:59:19.760Z,20.05
2023-05-10T15:04:29.836Z,20.00
2023-05-10T15:09:40.082Z,20.06
2023-05-10T15:14:49.963Z,20.13
2023-05-10T15:20:00.130Z,20.06
2023-05-10T15:25:11.541Z,19.98
2023-05-10T15:30:21.648Z,20.40
2023-05-10T15:35:31.744Z,20.89
2023-05-10T15:40:41.508Z,21.20
2023-05-10T15:45:51.642Z,21.83
2023-05-10T15:51:01.672Z,22.18
2023-05-10T15:56:12.600Z,22.49
2023-05-10T16:01:22.270Z,22.71
2023-05-10T16:06:32.983Z,23.08
2023-05-10T16:11:44.310Z,23.31
2023-05-10T16:16:54.346Z,23.41
2023-05-10T16:22:04.470Z,23.50
2023-05-10T16:27:14.234Z,23.51
2023-05-10T16:32:24.188Z,23.86
2023-05-10T16:37:34.787Z,24.08
2023-05-10T16:42:44.583Z,23.80
2023-05-10T16:47:55.288Z,23.94
2023-05-10T16:53:05.177Z,23.85
2023-05-10T16:58:15.057Z,23.87
2023-05-10T17:03:24.913Z,23.89
2023-05-10T17:08:34.489Z,23.70
2023-05-10T17:13:44.445Z,23.61
2023-05-10T17:18:54.303Z,23.66
2023-05-10T17:24:04.191Z,23.72
2023-05-10T17:29:14.447Z,23.31
2023-05-10T17:34:24.308Z,22.77
2023-05-10T17:39:34.349Z,22.34
2023-05-10T17:44:44.526Z,22.00
2023-05-10T17:49:54.987Z,21.67
2023-05-10T17:55:05.307Z,20.89
2023-05-10T18:00:18.874Z,19.63
2023-05-10T18:05:28.682Z,18.71
2023-05-10T18:10:41.363Z,17.99
2023-05-10T18:15:51.661Z,17.55
2023-05-10T18:21:01.547Z,17.15
2023-05-10T18:26:13.331Z,16.80
2023-05-10T18:31:23.420Z,16.52
2023-05-10T18:36:33.589Z,16.28
2023-05-10T18:41:43.866Z,16.03
2023-05-10T18:46:54.549Z,15.83
2023-05-10T18:52:04.498Z,15.66
2023-05-10T18:57:14.817Z,15.53
2023-05-10T19:02:25.582Z,15.40
2023-05-10T19:07:35.647Z,15.22
2023-05-10T19:12:45.405Z,15.05
2023-05-10T19:17:55.366Z,14.86
2023-05-10T19:23:10.216Z,14.73
2023-05-10T19:28:20.621Z,14.62
2023-05-10T19:33:30.880Z,14.44
2023-05-10T19:38:40.990Z,14.28
2023-05-10T19:43:50.649Z,14.16
2023-05-10T19:49:00.496Z,14.02
2023-05-10T19:54:10.574Z,13.94
2023-05-10T19:59:20.528Z,13.85
2023-05-10T20:04:30.584Z,13.76
2023-05-10T20:09:40.172Z,13.63
2023-05-10T20:14:49.727Z,13.49
2023-05-10T20:19:59.509Z,13.35
2023-05-10T20:25:11.548Z,13.15
2023-05-10T20:30:21.678Z,13.02
2023-05-10T20:35:31.814Z,12.87
2023-05-10T20:40:41.984Z,12.77
2023-05-10T20:45:51.997Z,12.65
2023-05-10T20:51:02.323Z,12.56
2023-05-10T20:56:13.221Z,12.41
2023-05-10T21:01:23.003Z,12.34
2023-05-10T21:06:33.110Z,12.27
2023-05-10T21:11:42.881Z,12.18
2023-05-10T21:16:52.620Z,12.02
2023-05-10T21:22:02.223Z,11.91
2023-05-10T21:27:11.783Z,11.78
2023-05-10T21:32:21.699Z,11.69
2023-05-10T21:37:31.583Z,11.63
2023-05-10T21:42:41.199Z,11.57
2023-05-10T21:47:50.835Z,11.49
2023-05-10T21:53:00.616Z,11.44
2023-05-10T21:58:10.236Z,11.38
2023-05-10T22:03:19.953Z,11.33
2023-05-10T22:08:29.705Z,11.26
2023-05-10T22:13:40.288Z,11.21
2023-05-10T22:18:50.220Z,11.11
2023-05-10T22:24:00.015Z,11.04
2023-05-10T22:29:09.767Z,10.89
2023-05-10T22:34:19.948Z,10.77
2023-05-10T22:39:29.466Z,10.74
2023-05-10T22:44:39.274Z,10.65
2023-05-10T22:49:48.910Z,10.53
2023-05-10T22:54:59.063Z,10.44
2023-05-10T23:00:12.244Z,10.40
2023-05-10T23:05:22.997Z,10.34
2023-05-10T23:10:32.624Z,10.26
2023-05-10T23:15:43.925Z,10.15
2023-05-10T23:20:54.244Z,10.12
2023-05-10T23:26:04.532Z,10.13
2023-05-10T23:31:14.175Z,10.12
2023-05-10T23:36:24.234Z,10.08
2023-05-10T23:41:33.987Z,10.05
2023-05-10T23:46:43.646Z,10.03
2023-05-10T23:51:53.351Z,9.97
2023-05-10T23:57:03.529Z,9.90
